Time;durP1;ratioP1;P1;durP2;ratioP2;P2;SDS_P1;SDS_P2;PMS_P1;PMS_P2;Temp;Humidity;BMP_temperature;BMP_pressure;BME280_temperature;BME280_humidity;BME280_pressure;Samples;Min_cycle;Max_cycle;Signal;HPM_P1;HPM_P2
2020/04/13 00:01:05;;;;;;;3.28;2.99;;;;;;;19.14;38.33;100216.22;;;;-57
2020/04/13 00:04:04;;;;;;;3.09;2.89;;;;;;;19.14;38.30;100210.50;;;;-57
2020/04/13 00:07:04;;;;;;;3.39;3.09;;;;;;;19.14;38.30;100213.07;;;;-57
2020/04/13 00:10:04;;;;;;;3.46;3.16;;;;;;;19.12;38.35;100204.45;;;;-57
2020/04/13 00:13:04;;;;;;;3.31;3.00;;;;;;;19.13;38.34;100200.78;;;;-57
2020/04/13 00:16:04;;;;;;;3.67;3.10;;;;;;;19.11;38.34;100199.22;;;;-57
2020/04/13 00:19:08;;;;;;;3.13;2.83;;;;;;;19.10;38.40;100196.11;;;;-57
2020/04/13 00:22:04;;;;;;;3.57;3.07;;;;;;;19.09;38.32;100194.02;;;;-57
2020/04/13 00:25:04;;;;;;;3.39;3.09;;;;;;;19.09;38.32;100199.08;;;;-57
2020/04/13 00:28:04;;;;;;;3.23;2.93;;;;;;;19.09;38.33;100197.80;;;;-57
2020/04/13 00:31:06;;;;;;;3.41;3.11;;;;;;;19.08;38.33;100196.86;;;;-56
2020/04/13 00:34:04;;;;;;;3.37;3.08;;;;;;;19.08;38.32;100198.59;;;;-57
2020/04/13 00:37:04;;;;;;;3.50;3.20;;;;;;;19.08;38.34;100192.23;;;;-57
2020/04/13 00:40:04;;;;;;;3.30;3.01;;;;;;;19.07;38.37;100188.28;;;;-57
2020/04/13 00:43:04;;;;;;;3.44;3.14;;;;;;;19.07;38.33;100181.66;;;;-56
2020/04/13 00:46:04;;;;;;;3.21;2.94;;;;;;;19.06;38.30;100179.70;;;;-57
2020/04/13 00:49:04;;;;;;;3.31;3.01;;;;;;;19.06;38.35;100178.49;;;;-57
2020/04/13 00:52:04;;;;;;;3.42;3.12;;;;;;;19.05;38.36;100178.33;;;;-56
2020/04/13 00:55:04;;;;;;;3.38;3.08;;;;;;;19.06;38.32;100181.27;;;;-56
2020/04/13 00:58:04;;;;;;;3.23;2.94;;;;;;;19.05;38.30;100179.80;;;;-57
2020/04/13 01:01:27;;;;;;;3.49;3.19;;;;;;;19.04;38.35;100181.97;;;;-56
2020/04/13 01:04:04;;;;;;;3.10;2.89;;;;;;;19.05;38.33;100182.73;;;;-57
2020/04/13 01:07:04;;;;;;;3.57;3.00;;;;;;;19.04;38.33;100182.97;;;;-57
2020/04/13 01:10:04;;;;;;;3.17;2.93;;;;;;;19.03;38.30;100178.74;;;;-57
2020/04/13 01:13:04;;;;;;;3.33;3.03;;;;;;;19.03;38.32;100181.92;;;;-57
2020/04/13 01:16:04;;;;;;;3.35;3.09;;;;;;;19.03;38.32;100179.74;;;;-57
2020/04/13 01:19:04;;;;;;;3.38;3.08;;;;;;;19.02;38.28;100178.77;;;;-57
2020/04/13 01:22:04;;;;;;;3.04;2.84;;;;;;;19.02;38.32;100180.38;;;;-57
2020/04/13 01:25:04;;;;;;;3.24;2.95;;;;;;;19.03;38.29;100181.81;;;;-57
2020/04/13 01:28:04;;;;;;;3.31;3.01;;;;;;;19.01;38.35;100179.56;;;;-57
2020/04/13 01:31:04;;;;;;;3.42;3.12;;;;;;;19.02;38.27;100179.70;;;;-57
2020/04/13 01:34:04;;;;;;;3.30;3.00;;;;;;;19.01;38.31;100176.05;;;;-57
2020/04/13 01:37:04;;;;;;;3.28;2.95;;;;;;;19.01;38.34;100180.56;;;;-57
2020/04/13 01:40:04;;;;;;;3.41;3.11;;;;;;;19.01;38.31;100182.73;;;;-57
2020/04/13 01:43:04;;;;;;;3.38;2.95;;;;;;;19.00;38.33;100182.63;;;;-57
2020/04/13 01:46:04;;;;;;;3.48;3.17;;;;;;;18.99;38.30;100183.77;;;;-57
2020/04/13 01:49:04;;;;;;;3.16;2.87;;;;;;;18.99;38.28;100179.91;;;;-57
2020/04/13 01:52:04;;;;;;;3.33;3.03;;;;;;;18.99;38.31;100182.09;;;;-56
2020/04/13 01:55:04;;;;;;;3.36;3.06;;;;;;;18.98;38.30;100184.56;;;;-57
2020/04/13 01:58:04;;;;;;;3.55;3.25;;;;;;;18.98;38.32;100183.72;;;;-57
2020/04/13 02:01:04;;;;;;;3.47;3.13;;;;;;;18.97;38.30;100178.99;;;;-57
2020/04/13 02:04:04;;;;;;;3.30;3.00;;;;;;;18.97;38.31;100184.52;;;;-56
2020/04/13 02:07:04;;;;;;;3.32;3.03;;;;;;;18.98;38.31;100186.13;;;;-57
2020/04/13 02:10:05;;;;;;;3.33;3.10;;;;;;;18.96;38.29;100190.50;;;;-57
2020/04/13 02:13:04;;;;;;;3.19;2.93;;;;;;;18.96;38.29;100191.33;;;;-56
2020/04/13 02:16:04;;;;;;;3.43;3.13;;;;;;;18.96;38.25;100189.99;;;;-56
2020/04/13 02:19:04;;;;;;;3.28;2.98;;;;;;;18.96;38.28;100192.73;;;;-57
2020/04/13 02:22:04;;;;;;;3.53;3.23;;;;;;;18.96;38.28;100192.16;;;;-57
2020/04/13 02:25:04;;;;;;;3.18;2.93;;;;;;;18.96;38.29;100195.68;;;;-57
2020/04/13 02:28:04;;;;;;;3.55;3.25;;;;;;;18.95;38.31;100197.92;;;;-57
2020/04/13 02:31:13;;;;;;;3.30;3.00;;;;;;;18.94;38.32;100198.05;;;;-57
2020/04/13 02:34:12;;;;;;;2.99;2.79;;;;;;;18.94;38.30;100208.81;;;;-57
2020/04/13 02:37:24;;;;;;;3.52;3.22;;;;;;;18.93;38.28;100203.35;;;;-57
2020/04/13 02:40:16;;;;;;;3.45;3.15;;;;;;;18.93;38.32;100201.58;;;;-57
2020/04/13 02:43:04;;;;;;;3.21;2.98;;;;;;;18.93;38.31;100202.85;;;;-58
2020/04/13 02:46:04;;;;;;;3.34;3.01;;;;;;;18.93;38.28;100198.73;;;;-57
2020/04/13 02:49:04;;;;;;;3.57;3.21;;;;;;;18.92;38.30;100199.63;;;;-56
2020/04/13 02:52:04;;;;;;;3.29;2.99;;;;;;;18.92;38.28;100196.69;;;;-56
2020/04/13 02:55:04;;;;;;;3.05;2.75;;;;;;;18.92;38.29;100204.78;;;;-57
2020/04/13 02:58:04;;;;;;;3.50;3.20;;;;;;;18.91;38.28;100201.93;;;;-57
2020/04/13 03:01:04;;;;;;;3.30;3.00;;;;;;;18.91;38.36;100201.83;;;;-57
2020/04/13 03:04:04;;;;;;;3.36;3.06;;;;;;;18.91;38.27;100202.39;;;;-57
2020/04/13 03:07:04;;;;;;;3.31;3.00;;;;;;;18.91;38.28;100197.20;;;;-57
2020/04/13 03:10:04;;;;;;;3.03;2.80;;;;;;;18.90;38.28;100189.17;;;;-57
2020/04/13 03:13:05;;;;;;;3.36;3.06;;;;;;;18.90;38.27;100190.30;;;;-57
2020/04/13 03:16:10;;;;;;;3.65;3.11;;;;;;;18.90;38.27;100186.13;;;;-57
2020/04/13 03:19:27;;;;;;;3.24;2.94;;;;;;;18.89;38.31;100185.78;;;;-57
2020/04/13 03:22:07;;;;;;;3.01;2.81;;;;;;;18.89;38.31;100190.20;;;;-56
2020/04/13 03:25:04;;;;;;;3.00;2.80;;;;;;;18.89;38.30;100186.85;;;;-57
2020/04/13 03:28:04;;;;;;;3.23;3.00;;;;;;;18.89;38.30;100182.50;;;;-50
2020/04/13 03:31:04;;;;;;;3.13;2.91;;;;;;;18.89;38.31;100178.72;;;;-50
2020/04/13 03:34:04;;;;;;;3.51;3.21;;;;;;;18.88;38.26;100175.60;;;;-50
2020/04/13 03:37:04;;;;;;;3.31;3.03;;;;;;;18.87;38.25;100172.04;;;;-50
2020/04/13 03:40:04;;;;;;;3.49;3.19;;;;;;;18.89;38.22;100173.46;;;;-50
2020/04/13 03:43:04;;;;;;;3.13;2.93;;;;;;;18.89;38.19;100172.73;;;;-51
2020/04/13 03:46:04;;;;;;;3.19;2.89;;;;;;;18.90;38.16;100171.60;;;;-50
2020/04/13 03:49:05;;;;;;;3.28;3.00;;;;;;;18.91;38.14;100177.13;;;;-50
2020/04/13 03:52:04;;;;;;;3.43;3.13;;;;;;;18.92;38.13;100177.50;;;;-50
2020/04/13 03:55:04;;;;;;;3.34;3.07;;;;;;;18.92;38.14;100181.22;;;;-50
2020/04/13 03:58:04;;;;;;;3.29;2.97;;;;;;;18.94;38.16;100187.06;;;;-50
2020/04/13 04:01:04;;;;;;;3.31;2.99;;;;;;;18.97;38.14;100188.59;;;;-50
2020/04/13 04:04:04;;;;;;;3.02;2.82;;;;;;;18.99;38.12;100182.76;;;;-50
2020/04/13 04:07:04;;;;;;;3.20;3.00;;;;;;;19.02;38.20;100192.31;;;;-50
2020/04/13 04:10:04;;;;;;;3.09;2.89;;;;;;;19.05;38.21;100198.30;;;;-50
2020/04/13 04:13:04;;;;;;;3.12;2.91;;;;;;;19.07;38.23;100205.35;;;;-50
2020/04/13 04:16:04;;;;;;;3.09;2.68;;;;;;;19.11;38.23;100206.25;;;;-50
2020/04/13 04:19:04;;;;;;;3.11;2.91;;;;;;;19.14;38.36;100205.81;;;;-50
2020/04/13 04:22:04;;;;;;;3.27;3.00;;;;;;;19.17;38.33;100201.48;;;;-50
2020/04/13 04:25:04;;;;;;;3.22;2.92;;;;;;;19.20;38.30;100203.05;;;;-51
2020/04/13 04:28:04;;;;;;;3.19;2.90;;;;;;;19.23;38.36;100200.26;;;;-51
2020/04/13 04:31:04;;;;;;;3.15;2.95;;;;;;;19.26;38.41;100199.21;;;;-51
2020/04/13 04:34:04;;;;;;;3.05;2.85;;;;;;;19.27;38.40;100195.30;;;;-50
2020/04/13 04:37:04;;;;;;;3.15;2.95;;;;;;;19.31;38.41;100203.40;;;;-50
2020/04/13 04:40:04;;;;;;;3.37;3.07;;;;;;;19.32;38.42;100206.29;;;;-50
2020/04/13 04:43:04;;;;;;;3.11;2.89;;;;;;;19.35;38.43;100204.84;;;;-51
2020/04/13 04:46:04;;;;;;;3.39;3.09;;;;;;;19.38;38.47;100214.23;;;;-50
2020/04/13 04:49:04;;;;;;;3.15;2.89;;;;;;;19.39;38.41;100215.16;;;;-51
2020/04/13 04:52:04;;;;;;;3.15;2.95;;;;;;;19.42;38.50;100223.00;;;;-50
2020/04/13 04:55:04;;;;;;;3.03;2.83;;;;;;;19.44;38.45;100219.17;;;;-51
2020/04/13 04:58:04;;;;;;;3.54;3.24;;;;;;;19.46;38.44;100229.03;;;;-51
2020/04/13 05:01:04;;;;;;;2.87;2.67;;;;;;;19.47;38.40;100232.36;;;;-50
2020/04/13 05:04:04;;;;;;;5.04;3.41;;;;;;;19.49;38.61;100241.48;;;;-52
2020/04/13 05:07:04;;;;;;;4.35;3.95;;;;;;;19.49;38.47;100249.02;;;;-52
2020/04/13 05:10:04;;;;;;;4.19;3.89;;;;;;;19.49;38.42;100254.98;;;;-51
2020/04/13 05:13:04;;;;;;;3.78;3.48;;;;;;;19.53;38.91;100245.90;;;;-57
2020/04/13 05:16:04;;;;;;;3.49;3.19;;;;;;;19.53;38.72;100249.42;;;;-57
2020/04/13 05:19:04;;;;;;;3.55;3.25;;;;;;;19.55;38.68;100250.84;;;;-56
2020/04/13 05:22:04;;;;;;;3.60;3.30;;;;;;;19.58;38.54;100245.77;;;;-56
2020/04/13 05:25:04;;;;;;;3.35;3.05;;;;;;;19.59;38.59;100246.14;;;;-56
2020/04/13 05:28:04;;;;;;;3.48;3.17;;;;;;;19.60;38.49;100251.11;;;;-58
2020/04/13 05:31:09;;;;;;;3.31;3.01;;;;;;;19.62;38.47;100245.43;;;;-57
2020/04/13 05:34:04;;;;;;;3.51;3.09;;;;;;;19.62;38.37;100248.55;;;;-56
2020/04/13 05:37:04;;;;;;;3.60;3.30;;;;;;;19.64;38.46;100255.30;;;;-57
2020/04/13 05:40:04;;;;;;;3.67;3.15;;;;;;;19.65;38.45;100254.70;;;;-57
2020/04/13 05:43:04;;;;;;;4.16;3.35;;;;;;;19.66;38.35;100248.20;;;;-57
2020/04/13 05:46:04;;;;;;;3.70;3.40;;;;;;;19.69;38.41;100246.34;;;;-56
2020/04/13 05:49:04;;;;;;;4.37;3.50;;;;;;;19.69;38.31;100255.37;;;;-56
2020/04/13 05:52:04;;;;;;;3.42;3.12;;;;;;;19.71;38.33;100273.41;;;;-56
2020/04/13 05:55:04;;;;;;;4.69;2.90;;;;;;;19.71;38.31;100278.13;;;;-57
2020/04/13 05:58:04;;;;;;;3.37;3.07;;;;;;;19.73;38.30;100275.42;;;;-56
2020/04/13 06:01:04;;;;;;;3.41;3.11;;;;;;;19.74;38.20;100277.64;;;;-56
2020/04/13 06:04:05;;;;;;;3.51;3.21;;;;;;;19.75;38.20;100277.34;;;;-58
2020/04/13 06:07:07;;;;;;;3.41;3.10;;;;;;;19.76;38.26;100292.80;;;;-58
2020/04/13 06:10:04;;;;;;;3.27;2.97;;;;;;;19.77;38.26;100317.66;;;;-58
2020/04/13 06:13:04;;;;;;;3.58;3.21;;;;;;;19.79;38.29;100323.09;;;;-57
2020/04/13 06:16:04;;;;;;;3.50;3.20;;;;;;;19.79;38.19;100325.61;;;;-58
2020/04/13 06:19:04;;;;;;;3.43;3.14;;;;;;;19.79;38.18;100329.13;;;;-57
2020/04/13 06:22:04;;;;;;;3.22;2.92;;;;;;;19.79;38.18;100329.97;;;;-56
2020/04/13 06:25:04;;;;;;;3.05;2.85;;;;;;;19.80;38.19;100338.98;;;;-56
2020/04/13 06:28:04;;;;;;;3.35;3.05;;;;;;;19.81;38.17;100339.86;;;;-57
2020/04/13 06:31:04;;;;;;;3.22;2.92;;;;;;;19.82;38.08;100337.45;;;;-57
2020/04/13 06:34:04;;;;;;;3.40;3.10;;;;;;;19.83;38.14;100343.80;;;;-57
2020/04/13 06:37:35;;;;;;;3.57;3.01;;;;;;;19.84;38.16;100347.42;;;;-58
2020/04/13 06:40:04;;;;;;;3.30;3.03;;;;;;;19.85;38.15;100352.90;;;;-56
2020/04/13 06:43:04;;;;;;;3.31;3.06;;;;;;;19.85;38.07;100342.45;;;;-57
2020/04/13 06:46:04;;;;;;;3.40;3.10;;;;;;;19.86;38.07;100341.42;;;;-57
2020/04/13 06:49:04;;;;;;;3.49;3.19;;;;;;;19.87;38.14;100342.76;;;;-57
2020/04/13 06:52:04;;;;;;;3.41;3.11;;;;;;;19.88;38.10;100344.81;;;;-57
2020/04/13 06:55:04;;;;;;;3.15;2.95;;;;;;;19.89;38.09;100342.17;;;;-57
2020/04/13 06:58:04;;;;;;;3.39;3.09;;;;;;;19.89;38.02;100346.36;;;;-57
2020/04/13 07:01:04;;;;;;;3.15;2.86;;;;;;;19.89;37.93;100349.75;;;;-57
2020/04/13 07:04:04;;;;;;;3.28;3.02;;;;;;;19.90;38.03;100351.20;;;;-57
2020/04/13 07:07:04;;;;;;;3.25;2.97;;;;;;;19.91;37.98;100356.67;;;;-57
2020/04/13 07:10:04;;;;;;;3.43;3.13;;;;;;;19.92;38.00;100362.61;;;;-58
2020/04/13 07:13:04;;;;;;;3.20;2.90;;;;;;;19.93;37.94;100363.63;;;;-56
2020/04/13 07:16:04;;;;;;;3.23;3.02;;;;;;;19.94;38.01;100356.02;;;;-57
2020/04/13 07:19:04;;;;;;;3.03;2.83;;;;;;;19.96;37.97;100354.09;;;;-57
2020/04/13 07:22:04;;;;;;;3.13;2.87;;;;;;;19.96;37.95;100347.32;;;;-57
2020/04/13 07:25:04;;;;;;;3.47;3.17;;;;;;;19.96;37.90;100339.44;;;;-57
2020/04/13 07:28:04;;;;;;;3.34;3.03;;;;;;;19.98;38.00;100348.91;;;;-57
2020/04/13 07:31:04;;;;;;;3.51;3.21;;;;;;;19.98;37.91;100342.77;;;;-57
2020/04/13 07:34:04;;;;;;;3.17;2.96;;;;;;;19.99;37.93;100346.36;;;;-56
2020/04/13 07:37:04;;;;;;;3.13;2.93;;;;;;;20.01;37.96;100354.49;;;;-57
2020/04/13 07:40:04;;;;;;;3.16;2.94;;;;;;;20.01;37.86;100356.38;;;;-58
2020/04/13 07:43:04;;;;;;;3.08;2.88;;;;;;;20.02;38.01;100359.59;;;;-58
2020/04/13 07:46:04;;;;;;;3.05;2.80;;;;;;;20.02;37.96;100354.64;;;;-57
2020/04/13 07:49:29;;;;;;;3.33;3.02;;;;;;;20.03;37.92;100353.00;;;;-57
2020/04/13 07:52:10;;;;;;;3.20;2.90;;;;;;;20.03;37.96;100356.79;;;;-57
2020/04/13 07:55:04;;;;;;;3.18;2.93;;;;;;;20.03;37.94;100359.88;;;;-57
2020/04/13 07:58:04;;;;;;;3.67;2.97;;;;;;;20.07;38.26;100360.44;;;;-58
2020/04/13 08:01:04;;;;;;;3.87;3.10;;;;;;;20.10;38.98;100363.17;;;;-57
2020/04/13 08:04:04;;;;;;;3.17;2.83;;;;;;;20.12;38.91;100368.18;;;;-52
2020/04/13 08:07:04;;;;;;;3.34;3.04;;;;;;;20.12;38.59;100370.30;;;;-56
2020/04/13 08:10:04;;;;;;;3.19;2.95;;;;;;;20.12;38.80;100380.75;;;;-57
2020/04/13 08:13:04;;;;;;;5.15;3.00;;;;;;;20.13;38.27;100392.80;;;;-54
2020/04/13 08:16:04;;;;;;;3.50;2.76;;;;;;;20.12;38.06;100392.77;;;;-54
2020/04/13 08:19:04;;;;;;;3.10;2.90;;;;;;;20.13;37.99;100398.34;;;;-54
2020/04/13 08:22:04;;;;;;;6.33;2.89;;;;;;;20.14;38.48;100403.81;;;;-51
2020/04/13 08:25:04;;;;;;;3.68;3.28;;;;;;;20.14;38.61;100404.41;;;;-54
2020/04/13 08:28:04;;;;;;;4.86;3.51;;;;;;;20.15;38.66;100413.57;;;;-54
2020/04/13 08:31:04;;;;;;;4.15;3.51;;;;;;;20.15;38.43;100422.12;;;;-53
2020/04/13 08:34:04;;;;;;;3.80;3.47;;;;;;;20.16;38.28;100423.91;;;;-56
2020/04/13 08:37:04;;;;;;;3.51;3.21;;;;;;;20.17;38.32;100423.45;;;;-51
2020/04/13 08:40:04;;;;;;;3.97;3.59;;;;;;;20.17;38.47;100420.86;;;;-57
2020/04/13 08:43:04;;;;;;;3.79;3.49;;;;;;;20.17;38.47;100421.20;;;;-52
2020/04/13 08:46:04;;;;;;;3.85;3.45;;;;;;;20.18;38.34;100428.45;;;;-52
2020/04/13 08:49:04;;;;;;;5.68;3.54;;;;;;;20.17;38.39;100421.31;;;;-60
2020/04/13 08:52:04;;;;;;;4.18;3.67;;;;;;;20.17;38.35;100399.41;;;;-60
2020/04/13 08:55:04;;;;;;;6.51;3.45;;;;;;;20.18;38.67;100367.48;;;;-60
2020/04/13 08:58:04;;;;;;;4.61;3.71;;;;;;;20.18;38.79;100376.74;;;;-59
2020/04/13 09:01:04;;;;;;;4.73;3.59;;;;;;;20.18;38.80;100390.66;;;;-56
2020/04/13 09:04:04;;;;;;;5.63;3.62;;;;;;;20.20;38.72;100356.59;;;;-56
2020/04/13 09:07:04;;;;;;;3.97;3.57;;;;;;;20.19;38.79;100375.28;;;;-57
2020/04/13 09:10:04;;;;;;;5.00;3.93;;;;;;;20.20;38.76;100388.06;;;;-56
2020/04/13 09:13:04;;;;;;;3.85;3.47;;;;;;;20.22;38.68;100383.91;;;;-56
2020/04/13 09:16:04;;;;;;;5.13;3.67;;;;;;;20.23;38.75;100350.58;;;;-59
2020/04/13 09:19:04;;;;;;;4.21;3.61;;;;;;;20.23;38.70;100369.97;;;;-58
2020/04/13 09:22:04;;;;;;;4.03;3.63;;;;;;;20.25;38.70;100396.67;;;;-59
2020/04/13 09:25:04;;;;;;;4.93;3.88;;;;;;;20.25;38.77;100401.30;;;;-52
2020/04/13 09:28:04;;;;;;;4.49;3.55;;;;;;;20.26;38.73;100400.20;;;;-53
2020/04/13 09:31:04;;;;;;;7.19;3.71;;;;;;;20.27;39.17;100408.97;;;;-52
2020/04/13 09:34:04;;;;;;;6.99;3.91;;;;;;;20.29;39.01;100422.87;;;;-55
2020/04/13 09:37:04;;;;;;;6.18;3.68;;;;;;;20.30;39.01;100426.83;;;;-57
2020/04/13 09:40:04;;;;;;;4.43;3.59;;;;;;;20.31;38.95;100420.39;;;;-55
2020/04/13 09:43:04;;;;;;;3.77;3.39;;;;;;;20.32;38.89;100416.41;;;;-54
2020/04/13 09:46:04;;;;;;;5.07;3.59;;;;;;;20.33;38.90;100405.66;;;;-58
2020/04/13 09:49:04;;;;;;;3.71;3.39;;;;;;;20.33;38.90;100381.50;;;;-53
2020/04/13 09:52:04;;;;;;;4.12;3.37;;;;;;;20.34;38.82;100375.27;;;;-53
2020/04/13 09:55:04;;;;;;;4.21;3.40;;;;;;;20.35;38.95;100397.11;;;;-53
2020/04/13 09:58:04;;;;;;;3.75;3.43;;;;;;;20.36;38.86;100409.56;;;;-52
2020/04/13 10:01:04;;;;;;;4.94;3.58;;;;;;;20.37;38.89;100424.87;;;;-53
2020/04/13 10:04:04;;;;;;;4.09;3.40;;;;;;;20.38;38.81;100432.19;;;;-54
2020/04/13 10:07:04;;;;;;;4.95;3.23;;;;;;;20.39;38.79;100431.16;;;;-58
2020/04/13 10:10:04;;;;;;;3.87;3.44;;;;;;;20.40;38.66;100431.50;;;;-55
2020/04/13 10:13:04;;;;;;;3.45;3.15;;;;;;;20.40;38.74;100436.40;;;;-56
2020/04/13 10:16:04;;;;;;;3.59;3.29;;;;;;;20.42;38.89;100434.27;;;;-57
2020/04/13 10:19:39;;;;;;;5.75;3.47;;;;;;;20.43;38.58;100439.84;;;;-58
2020/04/13 10:23:11;;;;;;;3.75;3.36;;;;;;;20.42;38.42;100439.33;;;;-57
2020/04/13 10:26:21;;;;;;;7.46;6.39;;;;;;;20.35;38.83;100430.49;;;;-53
2020/04/13 10:29:05;;;;;;;8.81;7.36;;;;;;;20.30;39.14;100424.25;;;;-55
2020/04/13 10:32:04;;;;;;;8.71;7.70;;;;;;;20.28;39.44;100423.29;;;;-58
2020/04/13 10:35:04;;;;;;;10.44;6.45;;;;;;;20.29;39.27;100423.60;;;;-57
2020/04/13 10:38:04;;;;;;;6.45;5.30;;;;;;;20.31;39.12;100432.07;;;;-53
2020/04/13 10:41:04;;;;;;;5.88;5.11;;;;;;;20.33;38.92;100434.27;;;;-56
2020/04/13 10:44:04;;;;;;;9.52;4.93;;;;;;;20.33;38.97;100433.42;;;;-58
2020/04/13 10:47:04;;;;;;;5.18;4.57;;;;;;;20.33;38.84;100434.00;;;;-57
2020/04/13 10:50:04;;;;;;;6.02;4.42;;;;;;;20.34;38.83;100449.64;;;;-58
2020/04/13 10:53:04;;;;;;;4.93;4.32;;;;;;;20.34;38.59;100455.01;;;;-57
2020/04/13 10:56:04;;;;;;;5.87;3.97;;;;;;;20.34;38.55;100462.16;;;;-57
2020/04/13 10:59:04;;;;;;;4.92;4.05;;;;;;;20.34;38.57;100470.87;;;;-57
2020/04/13 11:02:04;;;;;;;4.57;4.01;;;;;;;20.33;38.39;100476.44;;;;-58
2020/04/13 11:05:04;;;;;;;4.31;3.91;;;;;;;20.32;38.31;100474.65;;;;-58
2020/04/13 11:08:04;;;;;;;4.63;3.96;;;;;;;20.31;38.31;100478.97;;;;-57
2020/04/13 11:11:04;;;;;;;4.99;3.69;;;;;;;20.31;38.35;100488.52;;;;-57
2020/04/13 11:14:04;;;;;;;4.41;4.01;;;;;;;20.31;38.24;100488.26;;;;-57
2020/04/13 11:17:04;;;;;;;4.37;3.90;;;;;;;20.29;38.24;100471.73;;;;-58
2020/04/13 11:20:04;;;;;;;4.31;3.81;;;;;;;20.28;38.26;100464.59;;;;-58
2020/04/13 11:23:04;;;;;;;4.03;3.72;;;;;;;20.28;38.19;100460.13;;;;-57
2020/04/13 11:26:04;;;;;;;4.59;4.03;;;;;;;20.27;38.18;100453.94;;;;-58
2020/04/13 11:29:04;;;;;;;4.34;3.94;;;;;;;20.25;38.17;100452.05;;;;-58
2020/04/13 11:32:04;;;;;;;3.79;3.49;;;;;;;20.25;38.18;100463.25;;;;-57
2020/04/13 11:35:04;;;;;;;4.20;3.80;;;;;;;20.24;38.13;100468.05;;;;-58
2020/04/13 11:38:04;;;;;;;4.19;3.79;;;;;;;20.23;38.20;100469.91;;;;-58
2020/04/13 11:41:04;;;;;;;4.04;3.67;;;;;;;20.23;38.18;100473.94;;;;-58
2020/04/13 11:44:04;;;;;;;4.18;3.57;;;;;;;20.22;38.15;100476.41;;;;-57
2020/04/13 11:47:04;;;;;;;3.99;3.66;;;;;;;20.21;38.14;100475.93;;;;-58
2020/04/13 11:50:04;;;;;;;4.11;3.71;;;;;;;20.19;38.13;100481.92;;;;-58
2020/04/13 11:53:04;;;;;;;4.99;3.86;;;;;;;20.19;38.18;100488.53;;;;-57
2020/04/13 11:56:04;;;;;;;4.16;3.76;;;;;;;20.18;38.19;100493.18;;;;-57
2020/04/13 11:59:04;;;;;;;4.02;3.71;;;;;;;20.17;38.22;100494.65;;;;-57
2020/04/13 12:02:04;;;;;;;3.97;3.61;;;;;;;20.16;38.22;100501.25;;;;-58
2020/04/13 12:05:04;;;;;;;4.38;3.89;;;;;;;20.15;38.12;100494.90;;;;-58
2020/04/13 12:08:04;;;;;;;4.51;3.74;;;;;;;20.15;38.09;100499.09;;;;-58
2020/04/13 12:11:04;;;;;;;3.89;3.59;;;;;;;20.13;38.16;100503.97;;;;-57
2020/04/13 12:14:04;;;;;;;3.98;3.65;;;;;;;20.13;38.21;100510.01;;;;-58
2020/04/13 12:17:04;;;;;;;4.24;3.85;;;;;;;20.13;38.13;100522.64;;;;-58
2020/04/13 12:20:04;;;;;;;4.00;3.68;;;;;;;20.11;38.20;100521.55;;;;-57
2020/04/13 12:23:04;;;;;;;4.03;3.70;;;;;;;20.10;38.24;100533.25;;;;-58
2020/04/13 12:26:04;;;;;;;4.72;3.83;;;;;;;20.10;38.20;100543.30;;;;-58
2020/04/13 12:29:04;;;;;;;4.29;3.93;;;;;;;20.08;38.21;100535.61;;;;-58
2020/04/13 12:32:04;;;;;;;4.21;3.82;;;;;;;20.08;38.24;100538.45;;;;-58
2020/04/13 12:35:04;;;;;;;4.53;4.13;;;;;;;20.07;38.20;100543.67;;;;-58
2020/04/13 12:38:04;;;;;;;4.43;4.03;;;;;;;20.05;38.24;100539.17;;;;-58
2020/04/13 12:41:04;;;;;;;4.25;3.87;;;;;;;20.04;38.25;100540.62;;;;-58
2020/04/13 12:44:04;;;;;;;5.87;4.01;;;;;;;20.03;38.32;100545.39;;;;-57
2020/04/13 12:50:04;;;;;;;5.25;4.04;;;;;;;20.02;38.68;100543.00;;;;-61
2020/04/13 12:53:04;;;;;;;4.19;3.79;;;;;;;20.02;38.82;100544.07;;;;-63
2020/04/13 12:56:04;;;;;;;4.58;4.15;;;;;;;20.03;38.86;100547.69;;;;-61
2020/04/13 12:59:04;;;;;;;4.61;4.21;;;;;;;20.02;38.90;100542.89;;;;-61
2020/04/13 13:02:04;;;;;;;4.33;3.93;;;;;;;20.02;38.95;100544.58;;;;-56
2020/04/13 13:05:04;;;;;;;4.42;4.01;;;;;;;20.02;39.06;100556.30;;;;-55
2020/04/13 13:08:04;;;;;;;4.41;3.95;;;;;;;20.02;39.05;100557.81;;;;-55
2020/04/13 13:11:04;;;;;;;4.55;4.03;;;;;;;20.02;39.08;100561.66;;;;-57
2020/04/13 13:14:04;;;;;;;4.34;3.94;;;;;;;20.03;39.03;100563.78;;;;-60
2020/04/13 13:17:04;;;;;;;4.32;3.92;;;;;;;20.02;39.05;100569.22;;;;-58
2020/04/13 13:20:04;;;;;;;5.64;4.06;;;;;;;20.02;39.15;100569.98;;;;-53
2020/04/13 13:23:04;;;;;;;4.50;4.10;;;;;;;20.02;39.19;100566.30;;;;-60
2020/04/13 13:26:04;;;;;;;5.22;4.17;;;;;;;20.02;39.17;100571.50;;;;-57
2020/04/13 13:29:04;;;;;;;4.23;3.83;;;;;;;20.02;39.21;100575.48;;;;-53
2020/04/13 13:32:04;;;;;;;4.33;3.93;;;;;;;20.02;39.28;100583.02;;;;-57
2020/04/13 13:35:04;;;;;;;6.17;4.03;;;;;;;20.03;39.09;100586.29;;;;-60
2020/04/13 13:38:04;;;;;;;4.13;3.73;;;;;;;20.02;39.02;100579.61;;;;-60
2020/04/13 13:41:04;;;;;;;4.24;3.69;;;;;;;20.01;39.03;100583.14;;;;-61
2020/04/13 13:44:04;;;;;;;4.70;3.88;;;;;;;20.00;38.96;100587.33;;;;-61
2020/04/13 13:47:04;;;;;;;4.13;3.73;;;;;;;19.98;38.91;100588.36;;;;-60
2020/04/13 13:50:04;;;;;;;4.22;3.49;;;;;;;19.97;38.91;100596.32;;;;-60
2020/04/13 13:53:04;;;;;;;3.89;3.56;;;;;;;19.97;38.86;100611.27;;;;-60
2020/04/13 13:56:04;;;;;;;3.70;3.39;;;;;;;19.95;38.74;100605.85;;;;-60
2020/04/13 13:59:04;;;;;;;4.63;3.42;;;;;;;19.95;38.79;100610.11;;;;-61
2020/04/13 14:02:04;;;;;;;4.60;3.31;;;;;;;19.94;38.74;100612.47;;;;-61
2020/04/13 14:05:04;;;;;;;3.83;3.31;;;;;;;19.92;38.67;100618.05;;;;-61
2020/04/13 14:08:04;;;;;;;3.42;3.12;;;;;;;19.91;38.63;100619.02;;;;-60
2020/04/13 14:11:04;;;;;;;3.45;3.15;;;;;;;19.91;38.63;100617.56;;;;-60
2020/04/13 14:14:04;;;;;;;3.50;3.20;;;;;;;19.89;38.66;100616.98;;;;-60
2020/04/13 14:17:04;;;;;;;3.47;2.98;;;;;;;19.88;38.67;100620.85;;;;-60
2020/04/13 14:20:04;;;;;;;3.43;3.13;;;;;;;19.86;38.58;100620.86;;;;-60
2020/04/13 14:23:04;;;;;;;3.45;3.11;;;;;;;19.86;38.57;100616.06;;;;-60
2020/04/13 14:26:04;;;;;;;3.70;3.21;;;;;;;19.84;38.56;100619.66;;;;-61
2020/04/13 14:29:04;;;;;;;3.65;2.86;;;;;;;19.84;38.52;100621.11;;;;-61
2020/04/13 14:32:04;;;;;;;3.35;3.05;;;;;;;19.84;38.54;100628.64;;;;-60
2020/04/13 14:35:04;;;;;;;3.31;2.97;;;;;;;19.82;38.55;100625.81;;;;-60
2020/04/13 14:38:04;;;;;;;3.45;3.07;;;;;;;19.81;38.54;100629.12;;;;-60
2020/04/13 14:41:04;;;;;;;3.46;2.83;;;;;;;19.83;38.64;100630.44;;;;-58
2020/04/13 14:44:04;;;;;;;3.42;2.83;;;;;;;19.82;38.88;100632.58;;;;-56
2020/04/13 14:47:04;;;;;;;3.06;2.76;;;;;;;19.82;38.84;100633.36;;;;-56
2020/04/13 14:50:04;;;;;;;3.23;2.73;;;;;;;19.82;38.87;100640.89;;;;-54
2020/04/13 14:53:04;;;;;;;4.99;2.78;;;;;;;19.83;38.95;100645.02;;;;-57
2020/04/13 14:56:04;;;;;;;4.58;2.86;;;;;;;19.83;38.82;100656.09;;;;-57
2020/04/13 14:59:04;;;;;;;3.53;2.92;;;;;;;19.83;38.76;100656.19;;;;-57
2020/04/13 15:02:04;;;;;;;3.49;2.91;;;;;;;19.83;38.94;100666.64;;;;-54
2020/04/13 15:05:04;;;;;;;2.81;2.51;;;;;;;19.83;38.85;100658.77;;;;-54
2020/04/13 15:08:04;;;;;;;3.85;2.60;;;;;;;19.83;39.00;100651.73;;;;-53
2020/04/13 15:11:04;;;;;;;4.20;2.80;;;;;;;19.84;38.96;100661.16;;;;-54
2020/04/13 15:14:04;;;;;;;3.63;2.65;;;;;;;19.84;38.81;100661.06;;;;-55
2020/04/13 15:17:04;;;;;;;4.94;2.86;;;;;;;19.85;38.95;100665.80;;;;-57
2020/04/13 15:20:04;;;;;;;4.70;2.67;;;;;;;19.84;38.93;100663.95;;;;-59
2020/04/13 15:23:04;;;;;;;4.62;2.75;;;;;;;19.84;38.85;100661.90;;;;-57
2020/04/13 15:26:04;;;;;;;4.60;2.57;;;;;;;19.86;39.07;100669.70;;;;-57
2020/04/13 15:29:04;;;;;;;6.29;2.67;;;;;;;19.86;38.97;100666.28;;;;-59
2020/04/13 15:32:04;;;;;;;3.81;2.57;;;;;;;19.86;38.92;100672.89;;;;-57
2020/04/13 15:35:04;;;;;;;3.10;2.41;;;;;;;19.85;38.89;100674.22;;;;-56
2020/04/13 15:38:04;;;;;;;5.12;2.50;;;;;;;19.85;38.91;100672.00;;;;-58
2020/04/13 15:41:04;;;;;;;5.17;2.61;;;;;;;19.85;38.92;100670.03;;;;-60
2020/04/13 15:44:04;;;;;;;3.26;2.50;;;;;;;19.86;39.01;100676.23;;;;-59
2020/04/13 15:47:04;;;;;;;4.27;2.51;;;;;;;19.86;38.89;100673.16;;;;-58
2020/04/13 15:50:05;;;;;;;6.15;2.53;;;;;;;19.85;39.02;100675.06;;;;-58
2020/04/13 15:53:04;;;;;;;3.63;2.43;;;;;;;19.86;38.88;100681.14;;;;-55
2020/04/13 15:56:04;;;;;;;4.02;2.55;;;;;;;19.87;38.87;100681.08;;;;-56
2020/04/13 15:59:04;;;;;;;6.12;2.59;;;;;;;19.85;38.86;100691.66;;;;-59
2020/04/13 16:02:04;;;;;;;4.04;2.37;;;;;;;19.84;38.71;100685.47;;;;-58
2020/04/13 16:05:04;;;;;;;3.09;2.26;;;;;;;19.83;38.71;100690.72;;;;-58
2020/04/13 16:08:04;;;;;;;4.13;2.26;;;;;;;19.81;38.64;100685.66;;;;-58
2020/04/13 16:11:04;;;;;;;3.35;2.34;;;;;;;19.80;38.62;100684.37;;;;-59
2020/04/13 16:14:04;;;;;;;5.17;2.30;;;;;;;19.80;38.62;100683.77;;;;-55
2020/04/13 16:17:04;;;;;;;6.73;2.33;;;;;;;19.80;38.66;100685.22;;;;-63
2020/04/13 16:20:04;;;;;;;3.40;2.40;;;;;;;19.79;38.61;100691.27;;;;-62
2020/04/13 16:23:04;;;;;;;4.12;2.47;;;;;;;19.78;38.63;100697.36;;;;-63
2020/04/13 16:26:04;;;;;;;8.14;2.53;;;;;;;19.78;38.71;100694.84;;;;-53
2020/04/13 16:29:04;;;;;;;3.53;2.43;;;;;;;19.79;38.70;100692.77;;;;-53
2020/04/13 16:32:04;;;;;;;4.05;2.35;;;;;;;19.80;38.86;100690.73;;;;-54
2020/04/13 16:35:04;;;;;;;4.25;2.11;;;;;;;19.83;38.94;100689.04;;;;-58
2020/04/13 16:38:04;;;;;;;4.41;2.29;;;;;;;19.86;38.98;100691.53;;;;-57
2020/04/13 16:41:04;;;;;;;3.05;2.28;;;;;;;19.89;39.02;100690.95;;;;-54
2020/04/13 16:44:04;;;;;;;3.29;2.33;;;;;;;19.93;38.90;100696.91;;;;-54
2020/04/13 16:47:04;;;;;;;4.70;2.11;;;;;;;19.95;38.82;100694.13;;;;-57